Time;durP1;ratioP1;P1;durP2;ratioP2;P2;SDS_P1;SDS_P2;PMS_P1;PMS_P2;Temp;Humidity;BMP_temperature;BMP_pressure;BME280_temperature;BME280_humidity;BME280_pressure;Samples;Min_cycle;Max_cycle;Signal;HPM_P1;HPM_P2
2022/11/11 00:00:26;;;;;;;8.63;3.65;;;3.60;99.90;;;;;;4974113;28;20089;-35
2022/11/11 00:02:54;;;;;;;5.78;3.53;;;3.60;99.90;;;;;;4970061;28;20038;-34
2022/11/11 00:05:20;;;;;;;6.53;3.58;;;3.60;99.90;;;;;;4976146;28;20030;-32
2022/11/11 00:07:46;;;;;;;6.75;3.72;;;3.60;99.90;;;;;;4974952;28;20093;-35
2022/11/11 00:10:12;;;;;;;3.33;2.90;;;3.60;99.90;;;;;;4974641;28;20148;-31
2022/11/11 00:12:38;;;;;;;2.67;2.38;;;3.50;99.90;;;;;;4974993;28;20046;-34
2022/11/11 00:15:04;;;;;;;3.65;2.72;;;3.50;99.90;;;;;;4975448;28;20030;-33
2022/11/11 00:25:42;;;;;;;3.85;3.15;;;3.50;99.90;;;;;;4973266;28;20799;-32
2022/11/11 00:28:07;;;;;;;5.10;3.08;;;3.40;99.90;;;;;;4975055;28;20116;-34
2022/11/11 00:30:33;;;;;;;4.78;3.72;;;3.40;99.90;;;;;;4976609;28;20511;-34
2022/11/11 00:32:59;;;;;;;9.38;4.88;;;3.30;99.90;;;;;;4973116;28;20034;-29
2022/11/11 00:38:44;;;;;;;7.40;3.80;;;3.10;99.90;;;;;;4990697;28;20407;-35
2022/11/11 00:40:57;;;;;;;4.40;3.25;;;2.90;99.90;;;;;;4989143;28;20034;-36
2022/11/11 00:43:22;;;;;;;5.00;3.20;;;2.70;99.90;;;;;;4990782;28;20403;-33
2022/11/11 00:45:48;;;;;;;6.78;2.97;;;2.60;99.90;;;;;;4990621;28;20026;-36
2022/11/11 00:50:57;;;;;;;4.82;2.20;;;2.50;99.90;;;;;;4986660;28;20041;-36
2022/11/11 00:53:25;;;;;;;2.88;2.47;;;2.50;99.90;;;;;;4987308;28;20030;-33
2022/11/11 00:55:51;;;;;;;2.15;2.05;;;2.50;99.90;;;;;;4989803;28;20483;-34
2022/11/11 00:58:17;;;;;;;5.10;2.97;;;2.60;99.90;;;;;;4978050;28;20034;-32
2022/11/11 01:00:43;;;;;;;3.53;3.13;;;2.70;99.90;;;;;;4985443;28;20448;-36
2022/11/11 01:03:09;;;;;;;4.40;3.20;;;2.70;99.90;;;;;;4987999;28;20066;-35
2022/11/11 01:05:37;;;;;;;5.75;3.47;;;2.70;99.90;;;;;;4984861;28;20595;-35
2022/11/11 01:08:03;;;;;;;3.03;2.72;;;2.80;99.90;;;;;;4990382;28;20461;-37
2022/11/11 01:10:37;;;;;;;7.78;5.10;;;2.80;99.90;;;;;;4991458;28;20060;-33
2022/11/11 01:13:23;;;;;;;9.60;5.43;;;2.80;99.90;;;;;;4988342;28;20100;-36
2022/11/11 01:15:51;;;;;;;6.05;4.28;;;2.80;99.90;;;;;;4992034;28;20591;-36
2022/11/11 01:18:20;;;;;;;4.22;3.47;;;2.80;99.90;;;;;;5002380;28;20030;-34
2022/11/11 01:20:46;;;;;;;3.00;2.72;;;2.80;99.90;;;;;;4987233;28;20506;-37
2022/11/11 01:23:12;;;;;;;6.35;3.63;;;2.90;99.90;;;;;;4990701;28;20030;-36
2022/11/11 01:25:40;;;;;;;3.97;2.60;;;2.70;99.90;;;;;;4987031;28;20050;-34
2022/11/11 01:28:07;;;;;;;6.17;3.73;;;2.30;99.90;;;;;;4979518;28;20025;-36
2022/11/11 01:30:34;;;;;;;5.13;3.45;;;2.00;99.90;;;;;;4974140;28;20273;-36
2022/11/11 01:33:01;;;;;;;4.35;2.63;;;1.90;99.90;;;;;;4975839;28;20113;-29
2022/11/11 01:35:27;;;;;;;4.30;3.05;;;2.00;99.90;;;;;;4971449;28;22040;-31
2022/11/11 01:37:53;;;;;;;4.05;3.40;;;2.10;99.90;;;;;;4988364;28;20404;-30
2022/11/11 01:40:19;;;;;;;2.97;2.60;;;2.20;99.90;;;;;;4975093;28;20065;-33
2022/11/11 01:42:49;;;;;;;3.22;2.50;;;2.40;99.90;;;;;;4975344;28;20180;-33
2022/11/11 01:45:43;;;;;;;6.28;3.05;;;2.40;99.90;;;;;;4974396;28;20117;-33
2022/11/11 01:51:16;;;;;;;4.35;2.85;;;2.20;99.90;;;;;;4974623;28;20089;-33
2022/11/11 01:53:42;;;;;;;2.72;2.47;;;2.20;99.90;;;;;;4969631;28;20045;-31
2022/11/11 01:56:09;;;;;;;3.53;2.65;;;2.30;99.90;;;;;;4971985;28;20030;-31
2022/11/11 01:58:35;;;;;;;4.25;2.58;;;2.30;99.90;;;;;;4979440;28;20050;-33
2022/11/11 02:01:01;;;;;;;2.30;2.10;;;2.30;99.90;;;;;;4974912;28;20049;-41
2022/11/11 02:03:30;;;;;;;2.42;2.28;;;2.30;99.90;;;;;;4980029;28;20058;-42
2022/11/11 02:05:56;;;;;;;3.50;2.72;;;2.30;99.90;;;;;;4987641;28;20027;-42
2022/11/11 02:08:33;;;;;;;2.17;2.08;;;2.30;99.90;;;;;;4986385;28;20149;-41
2022/11/11 02:11:12;;;;;;;3.13;2.90;;;2.30;99.90;;;;;;4989501;28;20034;-38
2022/11/11 02:16:24;;;;;;;3.13;2.83;;;2.40;99.90;;;;;;4986775;28;20112;-41
2022/11/11 02:18:50;;;;;;;2.50;2.30;;;2.40;99.90;;;;;;4988588;28;20034;-38
2022/11/11 02:21:32;;;;;;;2.75;2.08;;;2.40;99.90;;;;;;4989243;28;20037;-42
2022/11/11 02:24:07;;;;;;;5.22;3.20;;;2.50;99.90;;;;;;4986498;28;20030;-40
2022/11/11 02:26:35;;;;;;;4.82;2.88;;;2.40;99.90;;;;;;4982809;28;20050;-41
2022/11/11 02:29:06;;;;;;;2.80;2.45;;;2.40;99.90;;;;;;4986537;28;20090;-43
2022/11/11 02:31:32;;;;;;;6.00;3.00;;;2.30;99.90;;;;;;4984170;28;20038;-41
2022/11/11 02:33:58;;;;;;;3.10;2.40;;;2.20;99.90;;;;;;4985774;28;20019;-39
2022/11/11 02:36:24;;;;;;;3.58;2.20;;;2.30;99.90;;;;;;4982384;28;20491;-41
2022/11/11 02:38:50;;;;;;;3.17;2.42;;;2.30;99.90;;;;;;4992578;28;20030;-42
2022/11/11 02:44:00;;;;;;;4.10;2.47;;;2.30;99.90;;;;;;4991659;28;20083;-42
2022/11/11 02:46:26;;;;;;;2.85;2.58;;;2.40;99.90;;;;;;4985854;28;20069;-42
2022/11/11 02:48:51;;;;;;;3.75;2.50;;;2.30;99.90;;;;;;4990241;28;20091;-40
2022/11/11 02:51:17;;;;;;;3.13;2.78;;;2.20;99.90;;;;;;4989923;28;20034;-42
2022/11/11 02:53:43;;;;;;;2.78;2.58;;;2.20;99.90;;;;;;4986942;28;20089;-41
2022/11/11 02:56:08;;;;;;;3.00;2.33;;;2.20;99.90;;;;;;4985807;28;20080;-40
2022/11/11 02:58:34;;;;;;;1.92;1.83;;;2.20;99.90;;;;;;4980856;28;20513;-37
2022/11/11 03:00:59;;;;;;;2.83;2.50;;;2.20;99.90;;;;;;4983724;28;20107;-41
2022/11/11 03:03:25;;;;;;;2.85;2.55;;;2.10;99.90;;;;;;4986442;28;20061;-40
2022/11/11 03:05:50;;;;;;;2.72;2.42;;;2.10;99.90;;;;;;4986852;28;20046;-38
2022/11/11 03:08:17;;;;;;;3.42;2.35;;;2.10;99.90;;;;;;4985963;28;20027;-37
2022/11/11 03:10:42;;;;;;;3.10;2.60;;;2.20;99.90;;;;;;4988271;28;20026;-41
2022/11/11 03:13:08;;;;;;;2.50;2.30;;;2.20;99.90;;;;;;4987218;28;20497;-41
2022/11/11 03:15:34;;;;;;;2.55;2.35;;;2.20;99.90;;;;;;4988963;28;20525;-42
2022/11/11 03:17:59;;;;;;;4.28;3.28;;;2.20;99.90;;;;;;4986074;28;20097;-40
2022/11/11 03:23:23;;;;;;;1.88;1.77;;;2.20;99.90;;;;;;4983329;28;20042;-41
2022/11/11 03:25:49;;;;;;;3.58;2.53;;;2.20;99.90;;;;;;4977016;28;20046;-39
2022/11/11 03:28:17;;;;;;;4.35;2.85;;;2.20;99.90;;;;;;4984462;28;20027;-36
2022/11/11 03:30:45;;;;;;;3.53;3.15;;;2.30;99.90;;;;;;4982602;28;20105;-43
2022/11/11 03:33:12;;;;;;;7.30;3.45;;;2.20;99.90;;;;;;4984623;28;20022;-40
2022/11/11 03:35:38;;;;;;;3.72;2.70;;;2.30;99.90;;;;;;4982500;28;20043;-38
2022/11/11 03:38:15;;;;;;;3.80;2.30;;;2.30;99.90;;;;;;4988679;28;20026;-38
2022/11/11 03:40:48;;;;;;;2.80;2.60;;;2.30;99.90;;;;;;4986459;28;20101;-38
2022/11/11 03:43:16;;;;;;;3.88;2.53;;;2.30;99.90;;;;;;4990976;28;20026;-42
2022/11/11 03:45:42;;;;;;;2.97;2.67;;;2.30;99.90;;;;;;4988510;28;20036;-39
2022/11/11 03:48:08;;;;;;;3.60;2.75;;;2.30;99.90;;;;;;4993441;28;20027;-41
2022/11/11 03:50:34;;;;;;;2.30;2.10;;;2.20;99.90;;;;;;4986093;28;20029;-41
2022/11/11 03:53:00;;;;;;;3.30;2.42;;;2.20;99.90;;;;;;4989865;28;20084;-42
2022/11/11 03:55:25;;;;;;;3.10;2.80;;;2.30;99.90;;;;;;4985986;28;20038;-36
2022/11/11 03:57:51;;;;;;;3.47;2.65;;;2.30;99.90;;;;;;4989689;28;20039;-40
2022/11/11 04:00:20;;;;;;;3.72;2.70;;;2.30;99.90;;;;;;4985540;28;20434;-41
2022/11/11 04:11:11;;;;;;;3.17;2.97;;;2.10;99.90;;;;;;4993004;28;20466;-39
2022/11/11 04:16:22;;;;;;;3.58;1.52;;;1.50;99.90;;;;;;4991989;28;20089;-35
2022/11/11 04:21:44;;;;;;;2.58;2.38;;;1.40;99.90;;;;;;4986774;28;20108;-38
2022/11/11 04:27:08;;;;;;;2.55;2.35;;;1.70;99.90;;;;;;4986035;28;20041;-41
2022/11/11 04:29:34;;;;;;;2.88;2.45;;;1.80;99.90;;;;;;4991055;28;20026;-39
2022/11/11 04:34:51;;;;;;;2.80;2.40;;;2.00;99.90;;;;;;4988096;28;20042;-43
2022/11/11 04:37:18;;;;;;;3.08;2.65;;;2.00;99.90;;;;;;4987833;28;20112;-41
2022/11/11 04:42:29;;;;;;;3.78;2.92;;;2.00;99.90;;;;;;4990995;28;20044;-41
2022/11/11 04:48:01;;;;;;;5.35;2.70;;;2.10;99.90;;;;;;4988092;28;20068;-43
2022/11/11 04:50:32;;;;;;;3.95;3.13;;;2.10;99.90;;;;;;4984902;28;20041;-42
2022/11/11 04:52:59;;;;;;;10.15;4.70;;;2.00;99.90;;;;;;4989374;28;20026;-40
2022/11/11 04:58:09;;;;;;;3.45;3.15;;;2.00;99.90;;;;;;4987881;28;20037;-39
2022/11/11 05:00:35;;;;;;;3.53;3.10;;;2.00;99.90;;;;;;4987286;28;20030;-42
2022/11/11 05:03:16;;;;;;;3.65;2.88;;;2.00;99.90;;;;;;4990805;28;20093;-42
2022/11/11 05:11:12;;;;;;;4.75;3.35;;;1.90;99.90;;;;;;4985436;28;20129;-41
2022/11/11 05:22:03;;;;;;;2.88;2.58;;;1.60;99.90;;;;;;4973961;28;20470;-36
2022/11/11 05:27:13;;;;;;;3.85;3.45;;;1.60;99.90;;;;;;4976945;28;20136;-39
2022/11/11 05:29:39;;;;;;;4.03;3.60;;;1.60;99.90;;;;;;4975013;28;20065;-39
2022/11/11 05:32:06;;;;;;;2.80;2.55;;;1.70;99.90;;;;;;4975242;28;20034;-38
2022/11/11 05:34:32;;;;;;;4.57;2.80;;;1.80;99.90;;;;;;4971189;28;20483;-36
2022/11/11 05:36:57;;;;;;;3.05;2.58;;;1.80;99.90;;;;;;4974393;28;20031;-41
2022/11/11 05:39:23;;;;;;;9.88;3.63;;;1.70;99.90;;;;;;4972903;28;20026;-40
2022/11/11 05:41:49;;;;;;;5.85;2.53;;;1.60;99.90;;;;;;4986460;28;20030;-43
2022/11/11 05:44:14;;;;;;;8.52;3.75;;;1.30;99.90;;;;;;4994093;28;20550;-38
2022/11/11 05:46:40;;;;;;;13.20;3.75;;;1.10;99.90;;;;;;4987966;28;20056;-38
2022/11/11 05:49:14;;;;;;;16.50;3.63;;;1.00;99.90;;;;;;4984977;28;20671;-38
2022/11/11 05:51:44;;;;;;;4.03;3.33;;;1.00;99.90;;;;;;4984731;28;20480;-42
2022/11/11 05:54:09;;;;;;;3.97;3.40;;;1.20;99.90;;;;;;4989820;28;20023;-42
2022/11/11 05:56:35;;;;;;;3.60;2.72;;;1.30;99.90;;;;;;4985973;28;20037;-40
2022/11/11 05:59:01;;;;;;;3.22;2.92;;;1.30;99.90;;;;;;4982058;28;20415;-41
2022/11/11 06:01:26;;;;;;;4.32;2.97;;;1.40;99.90;;;;;;4989304;28;20099;-42
2022/11/11 06:03:52;;;;;;;3.83;2.30;;;1.20;99.90;;;;;;4989488;28;20110;-40
2022/11/11 06:06:17;;;;;;;5.03;3.78;;;1.20;99.90;;;;;;4991786;28;20030;-41
2022/11/11 06:08:43;;;;;;;3.45;3.15;;;1.30;99.90;;;;;;4986847;28;20034;-42
2022/11/11 06:11:09;;;;;;;5.85;3.72;;;1.40;99.90;;;;;;4986259;28;20396;-41
2022/11/11 06:13:35;;;;;;;3.88;2.95;;;1.40;99.90;;;;;;4989869;28;20035;-41
2022/11/11 06:16:01;;;;;;;2.92;2.65;;;1.50;99.90;;;;;;4984910;28;20042;-37
2022/11/11 06:18:27;;;;;;;4.20;3.20;;;1.60;99.90;;;;;;4990548;28;20072;-40
2022/11/11 06:20:56;;;;;;;3.70;2.95;;;1.60;99.90;;;;;;4986172;28;20085;-39
2022/11/11 06:23:23;;;;;;;5.00;3.63;;;1.60;99.90;;;;;;4986652;28;20582;-39
2022/11/11 06:28:34;;;;;;;4.57;4.10;;;1.60;99.90;;;;;;4984397;28;20597;-38
2022/11/11 06:31:00;;;;;;;6.30;3.55;;;1.70;99.90;;;;;;4985513;28;20026;-40
2022/11/11 06:33:25;;;;;;;3.67;3.30;;;1.80;99.90;;;;;;4989352;28;20027;-43
2022/11/11 06:35:51;;;;;;;15.95;8.07;;;1.80;99.90;;;;;;4982161;28;20026;-40
2022/11/11 06:38:17;;;;;;;9.45;6.35;;;1.70;99.90;;;;;;4986130;28;20035;-37
2022/11/11 06:40:43;;;;;;;5.20;3.72;;;1.70;99.90;;;;;;4989161;28;20026;-37
2022/11/11 06:43:10;;;;;;;7.40;4.45;;;1.70;99.90;;;;;;4986380;28;20084;-41
2022/11/11 06:45:36;;;;;;;9.02;4.32;;;1.70;99.90;;;;;;4986332;28;20037;-41
2022/11/11 06:48:03;;;;;;;9.48;5.47;;;1.80;99.90;;;;;;4987712;28;20034;-41
2022/11/11 06:50:29;;;;;;;10.13;4.53;;;1.80;99.90;;;;;;4986735;28;20049;-40
2022/11/11 06:52:55;;;;;;;6.07;5.30;;;1.90;99.90;;;;;;4985453;28;20464;-39
2022/11/11 06:55:21;;;;;;;7.03;4.57;;;2.00;99.90;;;;;;4984934;28;20030;-42
2022/11/11 06:57:46;;;;;;;7.03;4.60;;;2.00;99.90;;;;;;4984441;28;20045;-37
2022/11/11 07:00:12;;;;;;;7.35;4.68;;;2.00;99.90;;;;;;4987929;28;20659;-39
2022/11/11 07:02:38;;;;;;;9.75;4.70;;;2.00;99.90;;;;;;4995784;28;20043;-41
2022/11/11 07:05:05;;;;;;;5.65;4.03;;;1.90;99.90;;;;;;4988120;28;20113;-36
2022/11/11 07:07:31;;;;;;;7.45;4.72;;;1.90;99.90;;;;;;4983524;28;20069;-42
2022/11/11 07:09:56;;;;;;;5.18;3.70;;;1.90;99.90;;;;;;4989164;28;20034;-39
2022/11/11 07:12:22;;;;;;;9.30;4.00;;;1.90;99.90;;;;;;4987990;28;20543;-42
2022/11/11 07:14:49;;;;;;;8.93;3.92;;;1.80;99.90;;;;;;5001983;28;20019;-40
2022/11/11 07:17:14;;;;;;;5.72;4.47;;;1.80;99.90;;;;;;4986252;28;20026;-41
2022/11/11 07:19:40;;;;;;;4.70;4.15;;;1.80;99.90;;;;;;4987614;28;20637;-37
2022/11/11 07:22:05;;;;;;;8.38;4.55;;;1.90;99.90;;;;;;4987071;28;20034;-39
2022/11/11 07:24:31;;;;;;;7.15;3.55;;;2.00;99.90;;;;;;4987729;28;20053;-39
2022/11/11 07:26:58;;;;;;;3.80;3.38;;;2.10;99.90;;;;;;4991327;28;20037;-41
2022/11/11 07:29:25;;;;;;;5.55;3.92;;;2.20;99.90;;;;;;4991527;28;20054;-42
2022/11/11 07:31:50;;;;;;;5.15;3.72;;;2.20;99.90;;;;;;4985332;28;20092;-40
2022/11/11 07:34:16;;;;;;;4.25;3.38;;;2.20;99.90;;;;;;4976430;28;20046;-41
2022/11/11 07:36:42;;;;;;;9.02;3.58;;;2.30;99.90;;;;;;4988528;28;20029;-42
2022/11/11 07:39:07;;;;;;;4.30;3.88;;;2.30;99.90;;;;;;4990301;28;20407;-35
2022/11/11 07:41:33;;;;;;;4.25;3.53;;;2.30;99.90;;;;;;4989107;28;20061;-39
2022/11/11 07:43:58;;;;;;;3.50;2.63;;;2.30;99.90;;;;;;4988746;28;20085;-42
2022/11/11 07:46:24;;;;;;;6.80;3.25;;;2.30;99.90;;;;;;4991278;28;20037;-42
2022/11/11 07:48:50;;;;;;;4.47;3.13;;;2.20;99.90;;;;;;4986315;28;20037;-41
2022/11/11 07:51:16;;;;;;;6.07;4.28;;;2.20;99.90;;;;;;4988919;28;20121;-39
2022/11/11 07:53:41;;;;;;;4.53;3.60;;;2.30;99.90;;;;;;4987772;28;20027;-41
2022/11/11 07:56:07;;;;;;;4.18;3.67;;;2.30;99.90;;;;;;4988437;28;20038;-42
2022/11/11 07:58:32;;;;;;;5.82;4.00;;;2.30;99.90;;;;;;4985061;28;20042;-42
2022/11/11 08:00:59;;;;;;;4.95;3.72;;;2.20;99.90;;;;;;4985910;28;20042;-42
2022/11/11 08:03:25;;;;;;;13.23;4.32;;;2.20;99.90;;;;;;4986501;28;20519;-41
2022/11/11 08:05:50;;;;;;;8.88;4.68;;;2.30;99.90;;;;;;4985969;28;20113;-42
2022/11/11 08:08:16;;;;;;;6.32;3.92;;;2.40;99.90;;;;;;4988981;28;20478;-41
2022/11/11 08:10:42;;;;;;;7.50;4.05;;;2.40;99.90;;;;;;4985571;28;20542;-42
2022/11/11 08:15:54;;;;;;;5.55;3.85;;;2.50;99.90;;;;;;4988513;28;20120;-43
2022/11/11 08:18:20;;;;;;;22.83;4.47;;;2.60;99.90;;;;;;4991160;28;20026;-42
2022/11/11 08:20:46;;;;;;;39.20;7.18;;;2.60;99.90;;;;;;4986278;28;20113;-38
2022/11/11 08:23:13;;;;;;;28.20;6.10;;;2.70;99.90;;;;;;4987236;28;20030;-41
2022/11/11 08:25:39;;;;;;;1.02;1.02;;;2.80;99.90;;;;;;4987254;28;20039;-39
2022/11/11 08:28:05;;;;;;;11.00;6.00;;;2.80;99.90;;;;;;4989558;28;20117;-41
2022/11/11 08:30:31;;;;;;;11.63;5.18;;;2.80;99.90;;;;;;4990072;28;20109;-41
2022/11/11 08:33:02;;;;;;;5.03;4.55;;;2.90;99.90;;;;;;4990450;28;20033;-40
2022/11/11 08:35:29;;;;;;;7.07;2.78;;;2.90;99.90;;;;;;4986794;28;20535;-39
2022/11/11 08:37:54;;;;;;;1.73;0.95;;;3.00;99.90;;;;;;4989189;28;20372;-43
2022/11/11 08:40:21;;;;;;;3.63;2.45;;;3.00;99.90;;;;;;4990065;28;20038;-42
2022/11/11 08:42:47;;;;;;;6.32;3.95;;;3.00;99.90;;;;;;4989673;28;20498;-42
2022/11/11 08:45:12;;;;;;;4.30;3.65;;;3.10;99.90;;;;;;4989914;28;20073;-42
2022/11/11 08:47:38;;;;;;;4.95;3.17;;;3.20;99.90;;;;;;4994327;28;20079;-42
2022/11/11 08:50:05;;;;;;;3.15;2.85;;;3.30;99.90;;;;;;4997748;28;20030;-38
2022/11/11 08:52:31;;;;;;;2.88;2.22;;;3.40;99.90;;;;;;4986540;28;20505;-42
2022/11/11 08:54:59;;;;;;;3.75;3.42;;;3.40;99.90;;;;;;4988850;28;20030;-40
2022/11/11 08:57:25;;;;;;;3.60;2.47;;;3.50;99.90;;;;;;4986814;28;20125;-39
2022/11/11 08:59:50;;;;;;;4.25;3.00;;;3.60;99.90;;;;;;4991869;28;20461;-42
2022/11/11 09:02:16;;;;;;;3.97;3.58;;;3.60;99.90;;;;;;4988953;28;20030;-42
2022/11/11 09:04:42;;;;;;;3.58;3.28;;;3.80;99.90;;;;;;4990911;28;20443;-36
2022/11/11 09:07:09;;;;;;;5.00;3.40;;;3.90;99.90;;;;;;4989427;28;20875;-41
2022/11/11 09:09:35;;;;;;;5.57;3.67;;;4.00;99.90;;;;;;4991040;28;20033;-42
2022/11/11 09:12:01;;;;;;;4.40;3.65;;;4.10;99.90;;;;;;4991834;28;20042;-41
2022/11/11 09:14:26;;;;;;;3.35;2.38;;;4.20;99.90;;;;;;4991958;28;20105;-40
2022/11/11 09:16:52;;;;;;;3.28;2.83;;;4.30;99.90;;;;;;4993093;28;20109;-42
2022/11/11 09:19:18;;;;;;;3.15;2.78;;;4.40;99.90;;;;;;4986978;28;20034;-42
2022/11/11 09:21:43;;;;;;;6.07;4.20;;;4.40;99.90;;;;;;4990413;28;20381;-36
2022/11/11 09:24:09;;;;;;;2.83;2.63;;;4.50;99.90;;;;;;4989165;28;20034;-41
2022/11/11 09:26:34;;;;;;;4.82;4.40;;;4.60;99.90;;;;;;4989597;28;20412;-41
2022/11/11 09:29:00;;;;;;;7.10;4.95;;;4.60;99.90;;;;;;4985041;28;20034;-42
2022/11/11 09:31:26;;;;;;;6.82;4.03;;;4.70;99.90;;;;;;4987318;28;20038;-36
2022/11/11 09:33:52;;;;;;;4.60;3.72;;;4.70;99.90;;;;;;4987354;28;20768;-41
2022/11/11 09:36:18;;;;;;;4.93;3.50;;;4.80;99.90;;;;;;4987370;28;20040;-42
2022/11/11 09:38:44;;;;;;;4.78;3.72;;;4.80;99.90;;;;;;4989141;28;20034;-40
2022/11/11 09:41:21;;;;;;;5.57;4.43;;;4.90;99.90;;;;;;4992381;28;20042;-41
2022/11/11 09:43:54;;;;;;;5.53;3.50;;;5.00;99.90;;;;;;4992532;28;20030;-40
2022/11/11 09:46:41;;;;;;;4.50;4.05;;;5.20;99.90;;;;;;4988186;28;20482;-41
2022/11/11 09:49:35;;;;;;;5.47;4.13;;;5.30;99.90;;;;;;4990469;28;20101;-41
2022/11/11 09:52:09;;;;;;;4.47;3.95;;;5.40;99.90;;;;;;4987747;28;20034;-40
2022/11/11 09:54:47;;;;;;;3.70;3.38;;;5.50;99.90;;;;;;4986280;28;20069;-39
2022/11/11 09:57:16;;;;;;;;;;;5.50;99.90;;;;;;4991306;28;20038;-42
2022/11/11 09:59:53;;;;;;;;;;;5.60;99.90;;;;;;4992435;28;19909;-39
2022/11/11 10:02:44;;;;;;;3.58;2.92;;;5.70;99.90;;;;;;4989353;28;19913;-40
2022/11/11 10:05:14;;;;;;;4.05;3.65;;;5.80;99.90;;;;;;4987798;28;20049;-41
2022/11/11 10:08:00;;;;;;;3.92;3.53;;;5.90;99.90;;;;;;4989019;28;20585;-42
2022/11/11 10:10:37;;;;;;;6.18;4.28;;;6.10;99.90;;;;;;4987624;28;20048;-41
2022/11/11 10:13:03;;;;;;;5.43;3.80;;;6.20;99.90;;;;;;5002781;28;20191;-40
2022/11/11 10:15:37;;;;;;;6.38;4.53;;;6.20;99.90;;;;;;4990840;28;20022;-39
2022/11/11 10:18:32;;;;;;;6.95;4.18;;;6.20;99.90;;;;;;4989096;28;20411;-41
2022/11/11 10:20:59;;;;;;;5.30;4.80;;;6.30;99.90;;;;;;4989387;28;20045;-38
2022/11/11 10:23:30;;;;;;;5.63;3.88;;;6.40;99.90;;;;;;4991555;28;20488;-39
2022/11/11 10:26:02;;;;;;;6.18;4.65;;;6.40;99.90;;;;;;4986235;28;20534;-40
2022/11/11 10:28:34;;;;;;;5.60;4.15;;;6.60;99.90;;;;;;4990942;28;20046;-42
2022/11/11 10:31:01;;;;;;;3.22;3.05;;;6.70;99.90;;;;;;4988643;28;20105;-42
2022/11/11 10:33:50;;;;;;;2.80;2.60;;;6.70;99.90;;;;;;4990026;28;20084;-43
2022/11/11 10:36:21;;;;;;;3.08;2.78;;;6.70;99.90;;;;;;4989370;28;20038;-42
2022/11/11 10:39:01;;;;;;;4.68;4.13;;;6.70;99.90;;;;;;4992004;28;20037;-40
2022/11/11 10:41:48;;;;;;;3.13;2.75;;;6.80;99.90;;;;;;4989640;28;20508;-38
2022/11/11 10:44:24;;;;;;;4.32;3.80;;;6.90;99.90;;;;;;4990578;28;20649;-42
2022/11/11 10:46:58;;;;;;;5.15;4.13;;;7.00;99.90;;;;;;4988627;28;20109;-41
2022/11/11 10:49:26;;;;;;;6.93;4.90;;;7.00;99.90;;;;;;4986232;28;20570;-41
2022/11/11 10:52:18;;;;;;;6.50;4.97;;;7.10;99.90;;;;;;4994351;28;20463;-39
2022/11/11 10:54:53;;;;;;;5.90;4.47;;;7.20;99.90;;;;;;4985449;28;20104;-41
2022/11/11 10:57:49;;;;;;;7.10;4.35;;;7.30;99.90;;;;;;4989028;28;20037;-42
2022/11/11 11:00:15;;;;;;;5.28;3.58;;;7.30;99.90;;;;;;4986058;28;20026;-40
2022/11/11 11:03:26;;;;;;;3.83;2.55;;;7.40;99.90;;;;;;4987936;28;20222;-40
2022/11/11 11:06:01;;;;;;;6.38;4.80;;;7.30;99.90;;;;;;4986393;28;20514;-41
2022/11/11 11:08:33;;;;;;;5.93;4.32;;;7.30;99.90;;;;;;4987026;28;20034;-40
2022/11/11 11:11:08;;;;;;;7.65;4.32;;;7.40;99.90;;;;;;4989553;28;20018;-33
2022/11/11 11:13:44;;;;;;;5.75;4.95;;;7.50;99.90;;;;;;4986813;28;20029;-39
2022/11/11 11:16:17;;;;;;;8.07;5.55;;;7.60;99.90;;;;;;4993774;28;20034;-41
2022/11/11 11:18:43;;;;;;;5.53;4.68;;;7.60;99.90;;;;;;4988581;28;20403;-42
2022/11/11 11:21:09;;;;;;;3.97;3.65;;;7.70;99.90;;;;;;4985614;28;20047;-39
2022/11/11 11:23:37;;;;;;;6.07;4.68;;;7.80;99.90;;;;;;4988912;28;20033;-41
2022/11/11 11:26:04;;;;;;;6.57;5.10;;;7.80;99.90;;;;;;4983799;28;20053;-41
2022/11/11 11:28:30;;;;;;;7.18;4.30;;;7.70;99.90;;;;;;4987439;28;20384;-40
2022/11/11 11:31:02;;;;;;;5.40;4.75;;;7.80;99.90;;;;;;4987093;28;20038;-41
2022/11/11 11:33:49;;;;;;;5.75;5.18;;;7.80;99.90;;;;;;4982568;28;20514;-36
2022/11/11 11:36:16;;;;;;;6.57;5.15;;;8.00;99.90;;;;;;4982567;28;20026;-41
2022/11/11 11:38:49;;;;;;;5.35;4.47;;;8.00;99.90;;;;;;4984147;28;20042;-38
2022/11/11 11:41:17;;;;;;;4.65;3.58;;;8.20;99.90;;;;;;4987160;28;20049;-41
2022/11/11 11:43:46;;;;;;;4.72;3.95;;;8.20;99.90;;;;;;4999479;28;20030;-42
2022/11/11 11:46:25;;;;;;;6.40;4.22;;;8.30;99.90;;;;;;4989204;28;20035;-41
2022/11/11 11:49:15;;;;;;;5.68;3.22;;;8.30;99.90;;;;;;4990557;28;20018;-40
2022/11/11 11:52:11;;;;;;;5.70;3.83;;;8.30;99.90;;;;;;4984859;28;20131;-41
2022/11/11 11:55:00;;;;;;;5.25;4.18;;;8.40;99.90;;;;;;4991456;28;20060;-40
2022/11/11 11:57:47;;;;;;;4.00;2.58;;;8.40;99.90;;;;;;5002641;28;20037;-40
2022/11/11 12:00:27;;;;;;;5.13;4.20;;;8.50;99.90;;;;;;4990504;28;20030;-41
2022/11/11 12:03:31;;;;;;;3.38;3.00;;;8.50;99.90;;;;;;4987750;28;20088;-41
2022/11/11 12:06:02;;;;;;;4.10;3.25;;;8.60;99.90;;;;;;4996150;28;20068;-42
2022/11/11 12:08:52;;;;;;;4.05;3.08;;;8.60;99.90;;;;;;4989535;28;20030;-39
2022/11/11 12:11:26;;;;;;;4.32;3.70;;;8.70;99.90;;;;;;4993142;28;20022;-42
2022/11/11 12:14:03;;;;;;;5.47;4.40;;;8.70;99.90;;;;;;4989882;28;20443;-40
2022/11/11 12:16:32;;;;;;;5.43;4.43;;;8.70;99.90;;;;;;4996243;28;20026;-40
2022/11/11 12:19:12;;;;;;;;;;;8.70;99.90;;;;;;4990908;28;20030;-38
2022/11/11 12:22:01;;;;;;;5.07;3.97;;;8.80;99.90;;;;;;5003477;28;19996;-37
2022/11/11 12:24:55;;;;;;;4.20;3.35;;;8.80;99.90;;;;;;4986155;28;20041;-40
2022/11/11 12:27:34;;;;;;;2.88;2.42;;;8.90;99.90;;;;;;4973071;28;20049;-40
2022/11/11 12:30:03;;;;;;;5.13;4.20;;;8.80;99.90;;;;;;4972716;28;20027;-39
2022/11/11 12:32:40;;;;;;;5.57;3.53;;;8.80;99.90;;;;;;4970490;28;20471;-39
2022/11/11 12:35:24;;;;;;;5.88;4.40;;;8.90;99.90;;;;;;4969130;28;20121;-40
2022/11/11 12:38:10;;;;;;;4.97;4.47;;;8.90;99.90;;;;;;4968827;28;20039;-37
2022/11/11 12:41:00;;;;;;;5.13;4.10;;;8.90;99.90;;;;;;4973646;28;20034;-39
2022/11/11 12:43:52;;;;;;;5.05;4.22;;;8.90;99.90;;;;;;4969790;28;20681;-37
2022/11/11 12:46:47;;;;;;;6.07;4.63;;;9.00;99.90;;;;;;4969827;28;20117;-37
2022/11/11 12:49:12;;;;;;;5.65;4.55;;;9.00;99.90;;;;;;4971446;28;20026;-40
2022/11/11 12:51:46;;;;;;;5.78;4.82;;;9.00;99.90;;;;;;4973437;28;20023;-39
2022/11/11 12:54:30;;;;;;;5.15;4.63;;;9.10;99.90;;;;;;4971358;28;20493;-40
2022/11/11 12:57:25;;;;;;;4.70;4.20;;;9.10;99.90;;;;;;4972360;28;20115;-37
2022/11/11 12:59:59;;;;;;;5.20;4.70;;;9.10;99.90;;;;;;4972978;28;20027;-36
2022/11/11 13:02:43;;;;;;;4.32;3.65;;;9.20;99.90;;;;;;4969827;28;20555;-41
2022/11/11 13:05:21;;;;;;;5.57;4.70;;;9.20;99.90;;;;;;4972132;28;20089;-38
2022/11/11 13:07:52;;;;;;;4.95;4.45;;;9.20;99.90;;;;;;4968223;28;20093;-42
2022/11/11 13:10:33;;;;;;;5.40;4.55;;;9.20;99.90;;;;;;4971775;28;20038;-42
2022/11/11 13:13:27;;;;;;;6.10;4.82;;;9.20;99.90;;;;;;4970938;28;20038;-41
2022/11/11 13:15:53;;;;;;;7.70;5.00;;;9.20;99.90;;;;;;4973667;28;20027;-41
2022/11/11 13:18:47;;;;;;;6.22;4.90;;;9.20;99.90;;;;;;4972525;28;20033;-38
2022/11/11 13:21:18;;;;;;;8.18;4.85;;;9.20;99.90;;;;;;4969954;28;20043;-42
2022/11/11 13:23:44;;;;;;;6.60;5.68;;;9.30;99.90;;;;;;4971326;28;20030;-42
2022/11/11 13:26:20;;;;;;;9.82;6.93;;;9.30;99.90;;;;;;4993970;28;20053;-41
2022/11/11 13:28:48;;;;;;;10.38;7.35;;;9.10;99.90;;;;;;4990938;28;20036;-40
2022/11/11 13:31:34;;;;;;;8.68;6.80;;;8.90;99.90;;;;;;4990689;28;20046;-41
2022/11/11 13:34:20;;;;;;;8.52;6.80;;;8.70;99.90;;;;;;4989356;28;20440;-41
2022/11/11 13:36:50;;;;;;;9.88;7.07;;;8.50;99.90;;;;;;4987813;28;20034;-40
2022/11/11 13:39:43;;;;;;;10.15;7.03;;;8.40;99.90;;;;;;5007625;28;20751;-41
2022/11/11 13:42:12;;;;;;;10.80;7.30;;;8.40;99.90;;;;;;4994111;28;20105;-40
2022/11/11 13:44:59;;;;;;;10.07;7.70;;;8.40;99.90;;;;;;4989316;28;20030;-42
2022/11/11 13:47:45;;;;;;;11.53;9.23;;;8.40;99.90;;;;;;4993408;28;20038;-42
2022/11/11 13:50:31;;;;;;;9.60;7.25;;;8.40;99.90;;;;;;4989804;28;20289;-33
2022/11/11 13:53:03;;;;;;;9.80;7.28;;;8.30;99.90;;;;;;4989274;28;20444;-40
2022/11/11 13:55:42;;;;;;;10.60;7.78;;;8.30;99.90;;;;;;4988824;28;20081;-42
2022/11/11 13:58:25;;;;;;;10.05;7.95;;;8.20;99.90;;;;;;4985537;28;20065;-39
2022/11/11 14:01:00;;;;;;;10.05;6.57;;;8.10;99.90;;;;;;4988662;28;20116;-41
2022/11/11 14:03:25;;;;;;;8.80;7.22;;;8.10;99.90;;;;;;4990085;28;20205;-39
2022/11/11 14:06:13;;;;;;;7.97;6.82;;;8.00;99.90;;;;;;4991795;28;20038;-41
2022/11/11 14:08:44;;;;;;;9.87;7.43;;;7.90;99.90;;;;;;4986659;28;20035;-42
2022/11/11 14:11:26;;;;;;;9.43;6.50;;;7.80;99.90;;;;;;4993073;28;20038;-41
2022/11/11 14:14:18;;;;;;;11.07;7.97;;;7.70;99.90;;;;;;4991319;28;20510;-41
2022/11/11 14:16:44;;;;;;;9.50;6.93;;;7.60;99.90;;;;;;4991421;28;20523;-39
2022/11/11 14:19:15;;;;;;;13.77;8.13;;;7.50;99.90;;;;;;4992037;28;20054;-40
2022/11/11 14:21:55;;;;;;;10.75;7.45;;;7.50;99.90;;;;;;4989171;28;20026;-40
2022/11/11 14:24:42;;;;;;;12.90;7.97;;;7.40;99.90;;;;;;4990092;28;20034;-38
2022/11/11 14:27:07;;;;;;;12.43;8.02;;;7.30;99.90;;;;;;4990539;28;20557;-40
2022/11/11 14:29:37;;;;;;;12.57;9.05;;;7.30;99.90;;;;;;4999664;28;20035;-38
2022/11/11 14:32:32;;;;;;;15.25;8.95;;;7.30;99.90;;;;;;4990288;28;20038;-41